createdAt,value
2022-12-18T10:30:53.467Z,1019.86
2022-12-18T10:31:55.464Z,1019.84
2022-12-18T10:32:57.505Z,1019.82
2022-12-18T10:33:59.522Z,1019.85
2022-12-18T10:35:01.546Z,1019.77
2022-12-18T10:36:03.558Z,1019.81
2022-12-18T10:37:05.590Z,1019.77
2022-12-18T10:38:07.640Z,1019.79
2022-12-18T10:39:09.076Z,1019.79
2022-12-18T10:40:11.894Z,1019.75
2022-12-18T10:41:12.889Z,1019.68
2022-12-18T10:42:14.920Z,1019.66
2022-12-18T10:43:16.933Z,1019.69
2022-12-18T10:44:18.924Z,1019.68
2022-12-18T10:45:20.936Z,1019.68
2022-12-18T10:46:23.045Z,1019.67
2022-12-18T10:47:25.098Z,1019.64
2022-12-18T10:48:27.170Z,1019.68
2022-12-18T10:49:29.176Z,1019.61
2022-12-18T10:51:01.300Z,1019.57
2022-12-18T10:51:32.632Z,1019.55
2022-12-18T10:52:34.720Z,1019.50
2022-12-18T10:53:36.729Z,1019.44
2022-12-18T10:54:38.767Z,1019.43
2022-12-18T10:55:40.774Z,1019.42
2022-12-18T10:56:42.783Z,1019.37
2022-12-18T10:57:44.052Z,1019.40
2022-12-18T10:58:46.607Z,1019.39
2022-12-18T10:59:47.708Z,1019.38
2022-12-18T11:00:49.712Z,1019.35
2022-12-18T11:01:51.920Z,1019.39
2022-12-18T11:02:53.170Z,1019.40
2022-12-18T11:04:00.338Z,1019.40
2022-12-18T11:04:55.896Z,1019.40
2022-12-18T11:05:57.903Z,1019.40
2022-12-18T11:06:59.922Z,1019.41
2022-12-18T11:08:01.956Z,1019.46
2022-12-18T11:09:08.023Z,1019.40
2022-12-18T11:10:05.417Z,1019.41
2022-12-18T11:11:07.453Z,1019.40
2022-12-18T11:12:09.461Z,1019.36
2022-12-18T11:13:11.479Z,1019.36
2022-12-18T12:06:50.545Z,1019.72
